sensor_id;sensor_type;location;lat;lon;timestamp;P1;durP1;ratioP1;P2;durP2;ratioP2
55491;SDS011;41354;52.990;6.878;2022-08-19T00:01:29;4.85;;;3.95;;
55491;SDS011;41354;52.990;6.878;2022-08-19T00:03:58;6.03;;;3.75;;
55491;SDS011;41354;52.990;6.878;2022-08-19T00:06:27;5.22;;;3.78;;
55491;SDS011;41354;52.990;6.878;2022-08-19T00:08:54;4.10;;;3.08;;
55491;SDS011;41354;52.990;6.878;2022-08-19T00:11:20;4.85;;;2.92;;
55491;SDS011;41354;52.990;6.878;2022-08-19T00:13:46;4.38;;;3.42;;
55491;SDS011;41354;52.990;6.878;2022-08-19T00:17:42;4.97;;;3.08;;
55491;SDS011;41354;52.990;6.878;2022-08-19T00:20:09;5.50;;;3.78;;
55491;SDS011;41354;52.990;6.878;2022-08-19T00:22:38;6.25;;;4.03;;
55491;SDS011;41354;52.990;6.878;2022-08-19T00:25:06;4.85;;;2.92;;
55491;SDS011;41354;52.990;6.878;2022-08-19T00:27:35;4.53;;;2.97;;
55491;SDS011;41354;52.990;6.878;2022-08-19T00:30:02;5.22;;;3.33;;
55491;SDS011;41354;52.990;6.878;2022-08-19T00:32:29;4.45;;;3.55;;
55491;SDS011;41354;52.990;6.878;2022-08-19T00:34:54;5.60;;;3.05;;
55491;SDS011;41354;52.990;6.878;2022-08-19T00:37:21;5.45;;;2.88;;
55491;SDS011;41354;52.990;6.878;2022-08-19T00:39:48;3.33;;;2.58;;
55491;SDS011;41354;52.990;6.878;2022-08-19T00:42:15;4.47;;;3.13;;
55491;SDS011;41354;52.990;6.878;2022-08-19T00:44:41;3.22;;;2.60;;
55491;SDS011;41354;52.990;6.878;2022-08-19T00:47:08;3.38;;;2.35;;
55491;SDS011;41354;52.990;6.878;2022-08-19T00:49:35;4.57;;;3.00;;
55491;SDS011;41354;52.990;6.878;2022-08-19T00:52:29;4.97;;;3.33;;
55491;SDS011;41354;52.990;6.878;2022-08-19T00:54:58;3.85;;;2.55;;
55491;SDS011;41354;52.990;6.878;2022-08-19T00:57:32;2.80;;;1.88;;
55491;SDS011;41354;52.990;6.878;2022-08-19T01:00:03;3.85;;;2.75;;
55491;SDS011;41354;52.990;6.878;2022-08-19T01:02:32;2.70;;;2.25;;
55491;SDS011;41354;52.990;6.878;2022-08-19T01:04:58;1.90;;;1.10;;
55491;SDS011;41354;52.990;6.878;2022-08-19T01:07:26;3.78;;;2.00;;
55491;SDS011;41354;52.990;6.878;2022-08-19T01:09:52;2.53;;;1.55;;
55491;SDS011;41354;52.990;6.878;2022-08-19T01:12:18;3.30;;;1.50;;
55491;SDS011;41354;52.990;6.878;2022-08-19T01:14:45;1.70;;;0.90;;
55491;SDS011;41354;52.990;6.878;2022-08-19T01:17:11;1.60;;;0.90;;
55491;SDS011;41354;52.990;6.878;2022-08-19T01:19:39;2.53;;;1.00;;
55491;SDS011;41354;52.990;6.878;2022-08-19T01:22:29;1.48;;;0.63;;
55491;SDS011;41354;52.990;6.878;2022-08-19T01:24:54;3.28;;;1.20;;
55491;SDS011;41354;52.990;6.878;2022-08-19T01:27:19;1.55;;;0.63;;
55491;SDS011;41354;52.990;6.878;2022-08-19T01:29:45;1.42;;;0.57;;
55491;SDS011;41354;52.990;6.878;2022-08-19T01:32:12;1.13;;;0.40;;
55491;SDS011;41354;52.990;6.878;2022-08-19T01:34:40;2.38;;;1.20;;
55491;SDS011;41354;52.990;6.878;2022-08-19T01:37:10;2.70;;;0.93;;
55491;SDS011;41354;52.990;6.878;2022-08-19T01:39:37;1.55;;;0.77;;
55491;SDS011;41354;52.990;6.878;2022-08-19T01:42:04;2.03;;;1.13;;
55491;SDS011;41354;52.990;6.878;2022-08-19T01:44:32;2.78;;;0.85;;
55491;SDS011;41354;52.990;6.878;2022-08-19T01:46:58;2.35;;;1.30;;
55491;SDS011;41354;52.990;6.878;2022-08-19T01:49:24;2.35;;;0.77;;
55491;SDS011;41354;52.990;6.878;2022-08-19T01:51:52;1.77;;;0.68;;
55491;SDS011;41354;52.990;6.878;2022-08-19T01:54:19;2.60;;;0.95;;
55491;SDS011;41354;52.990;6.878;2022-08-19T01:56:46;1.73;;;0.80;;
55491;SDS011;41354;52.990;6.878;2022-08-19T01:59:12;2.63;;;1.20;;
55491;SDS011;41354;52.990;6.878;2022-08-19T02:01:41;3.63;;;0.80;;
55491;SDS011;41354;52.990;6.878;2022-08-19T02:04:07;3.35;;;1.05;;
55491;SDS011;41354;52.990;6.878;2022-08-19T02:06:33;2.90;;;0.77;;
55491;SDS011;41354;52.990;6.878;2022-08-19T02:08:59;5.97;;;0.75;;
55491;SDS011;41354;52.990;6.878;2022-08-19T02:11:27;3.65;;;1.02;;
55491;SDS011;41354;52.990;6.878;2022-08-19T02:13:56;2.63;;;1.10;;
55491;SDS011;41354;52.990;6.878;2022-08-19T02:16:23;3.60;;;0.98;;
55491;SDS011;41354;52.990;6.878;2022-08-19T02:18:49;4.43;;;1.33;;
55491;SDS011;41354;52.990;6.878;2022-08-19T02:21:18;3.10;;;1.80;;
55491;SDS011;41354;52.990;6.878;2022-08-19T02:23:46;5.72;;;2.40;;
55491;SDS011;41354;52.990;6.878;2022-08-19T02:26:12;5.13;;;2.92;;
55491;SDS011;41354;52.990;6.878;2022-08-19T02:28:38;5.00;;;3.10;;
55491;SDS011;41354;52.990;6.878;2022-08-19T02:31:08;15.00;;;4.30;;
55491;SDS011;41354;52.990;6.878;2022-08-19T02:33:39;9.75;;;4.97;;
55491;SDS011;41354;52.990;6.878;2022-08-19T02:36:05;8.88;;;5.55;;
55491;SDS011;41354;52.990;6.878;2022-08-19T02:38:32;6.93;;;3.92;;
55491;SDS011;41354;52.990;6.878;2022-08-19T02:41:00;10.77;;;4.25;;
55491;SDS011;41354;52.990;6.878;2022-08-19T02:43:31;7.22;;;3.55;;
55491;SDS011;41354;52.990;6.878;2022-08-19T02:46:01;7.25;;;2.33;;
55491;SDS011;41354;52.990;6.878;2022-08-19T02:48:27;4.13;;;2.15;;
55491;SDS011;41354;52.990;6.878;2022-08-19T02:50:53;5.93;;;2.85;;
55491;SDS011;41354;52.990;6.878;2022-08-19T02:53:22;10.70;;;4.72;;
55491;SDS011;41354;52.990;6.878;2022-08-19T02:55:49;4.95;;;2.28;;
55491;SDS011;41354;52.990;6.878;2022-08-19T02:58:15;3.08;;;1.77;;
55491;SDS011;41354;52.990;6.878;2022-08-19T03:00:42;4.18;;;1.85;;
55491;SDS011;41354;52.990;6.878;2022-08-19T03:03:19;6.07;;;3.78;;
55491;SDS011;41354;52.990;6.878;2022-08-19T03:05:45;5.97;;;3.47;;
55491;SDS011;41354;52.990;6.878;2022-08-19T03:08:11;6.35;;;3.53;;
55491;SDS011;41354;52.990;6.878;2022-08-19T03:10:42;8.75;;;3.72;;
55491;SDS011;41354;52.990;6.878;2022-08-19T03:13:14;8.48;;;4.20;;
55491;SDS011;41354;52.990;6.878;2022-08-19T03:15:42;20.73;;;6.72;;
55491;SDS011;41354;52.990;6.878;2022-08-19T03:18:09;26.85;;;6.43;;
55491;SDS011;41354;52.990;6.878;2022-08-19T03:20:40;6.43;;;3.90;;
55491;SDS011;41354;52.990;6.878;2022-08-19T03:23:10;6.35;;;2.92;;
55491;SDS011;41354;52.990;6.878;2022-08-19T03:25:40;10.82;;;4.32;;
55491;SDS011;41354;52.990;6.878;2022-08-19T03:28:08;6.63;;;3.28;;
55491;SDS011;41354;52.990;6.878;2022-08-19T03:30:38;12.38;;;6.72;;
55491;SDS011;41354;52.990;6.878;2022-08-19T03:33:08;5.70;;;2.67;;
55491;SDS011;41354;52.990;6.878;2022-08-19T03:35:35;5.55;;;3.20;;
55491;SDS011;41354;52.990;6.878;2022-08-19T03:38:04;7.22;;;3.58;;
55491;SDS011;41354;52.990;6.878;2022-08-19T03:40:31;8.60;;;3.58;;
55491;SDS011;41354;52.990;6.878;2022-08-19T03:42:59;5.18;;;3.53;;
55491;SDS011;41354;52.990;6.878;2022-08-19T03:45:25;6.22;;;3.47;;
55491;SDS011;41354;52.990;6.878;2022-08-19T03:47:52;9.90;;;4.75;;
55491;SDS011;41354;52.990;6.878;2022-08-19T03:50:18;7.82;;;4.25;;
55491;SDS011;41354;52.990;6.878;2022-08-19T03:52:47;6.35;;;3.15;;
55491;SDS011;41354;52.990;6.878;2022-08-19T03:55:15;5.88;;;3.83;;
55491;SDS011;41354;52.990;6.878;2022-08-19T03:57:41;9.00;;;4.05;;
55491;SDS011;41354;52.990;6.878;2022-08-19T04:00:06;4.85;;;2.38;;
55491;SDS011;41354;52.990;6.878;2022-08-19T04:02:33;6.63;;;3.83;;
55491;SDS011;41354;52.990;6.878;2022-08-19T04:04:58;6.35;;;3.45;;
55491;SDS011;41354;52.990;6.878;2022-08-19T04:07:24;15.20;;;5.30;;
55491;SDS011;41354;52.990;6.878;2022-08-19T04:09:49;10.75;;;4.57;;
55491;SDS011;41354;52.990;6.878;2022-08-19T04:12:17;9.05;;;5.55;;
55491;SDS011;41354;52.990;6.878;2022-08-19T04:14:44;8.90;;;3.78;;
55491;SDS011;41354;52.990;6.878;2022-08-19T04:17:10;15.05;;;5.00;;
55491;SDS011;41354;52.990;6.878;2022-08-19T04:19:37;9.63;;;3.42;;
55491;SDS011;41354;52.990;6.878;2022-08-19T04:22:03;12.55;;;3.55;;
55491;SDS011;41354;52.990;6.878;2022-08-19T04:24:29;6.25;;;2.80;;
55491;SDS011;41354;52.990;6.878;2022-08-19T04:26:55;8.90;;;3.90;;
55491;SDS011;41354;52.990;6.878;2022-08-19T04:29:22;7.28;;;3.17;;
55491;SDS011;41354;52.990;6.878;2022-08-19T04:31:50;7.65;;;3.33;;
55491;SDS011;41354;52.990;6.878;2022-08-19T04:34:19;7.25;;;3.45;;
55491;SDS011;41354;52.990;6.878;2022-08-19T04:36:47;20.08;;;4.50;;
55491;SDS011;41354;52.990;6.878;2022-08-19T04:39:17;4.90;;;2.90;;
55491;SDS011;41354;52.990;6.878;2022-08-19T04:41:45;5.95;;;2.67;;
55491;SDS011;41354;52.990;6.878;2022-08-19T04:44:30;6.05;;;4.57;;
55491;SDS011;41354;52.990;6.878;2022-08-19T04:46:57;17.85;;;8.35;;
55491;SDS011;41354;52.990;6.878;2022-08-19T04:49:23;7.72;;;5.93;;
55491;SDS011;41354;52.990;6.878;2022-08-19T04:51:49;34.55;;;17.40;;
55491;SDS011;41354;52.990;6.878;2022-08-19T04:54:18;29.00;;;17.05;;
55491;SDS011;41354;52.990;6.878;2022-08-19T04:56:47;28.30;;;15.15;;
55491;SDS011;41354;52.990;6.878;2022-08-19T04:59:17;29.15;;;16.45;;
55491;SDS011;41354;52.990;6.878;2022-08-19T05:01:44;26.30;;;14.48;;
55491;SDS011;41354;52.990;6.878;2022-08-19T05:04:14;28.38;;;17.65;;
55491;SDS011;41354;52.990;6.878;2022-08-19T05:06:42;31.63;;;16.17;;
55491;SDS011;41354;52.990;6.878;2022-08-19T05:09:08;28.63;;;15.02;;
55491;SDS011;41354;52.990;6.878;2022-08-19T05:11:34;35.17;;;17.92;;
55491;SDS011;41354;52.990;6.878;2022-08-19T05:14:07;31.73;;;17.45;;
55491;SDS011;41354;52.990;6.878;2022-08-19T05:16:33;45.20;;;21.92;;
55491;SDS011;41354;52.990;6.878;2022-08-19T05:18:59;37.45;;;18.83;;
55491;SDS011;41354;52.990;6.878;2022-08-19T05:21:43;38.63;;;20.67;;
55491;SDS011;41354;52.990;6.878;2022-08-19T05:24:28;40.17;;;19.67;;
55491;SDS011;41354;52.990;6.878;2022-08-19T05:26:54;31.05;;;16.33;;
55491;SDS011;41354;52.990;6.878;2022-08-19T05:29:25;30.10;;;16.40;;
55491;SDS011;41354;52.990;6.878;2022-08-19T05:31:52;27.15;;;15.75;;
55491;SDS011;41354;52.990;6.878;2022-08-19T05:34:19;23.98;;;16.63;;
55491;SDS011;41354;52.990;6.878;2022-08-19T05:36:47;24.98;;;14.10;;
55491;SDS011;41354;52.990;6.878;2022-08-19T05:39:16;30.05;;;16.05;;
55491;SDS011;41354;52.990;6.878;2022-08-19T05:41:48;27.08;;;15.98;;
55491;SDS011;41354;52.990;6.878;2022-08-19T05:44:17;26.40;;;16.40;;
55491;SDS011;41354;52.990;6.878;2022-08-19T05:46:45;31.80;;;18.08;;
55491;SDS011;41354;52.990;6.878;2022-08-19T05:49:17;21.73;;;15.52;;
55491;SDS011;41354;52.990;6.878;2022-08-19T05:51:44;21.63;;;13.20;;
55491;SDS011;41354;52.990;6.878;2022-08-19T05:54:10;19.70;;;12.38;;
55491;SDS011;41354;52.990;6.878;2022-08-19T05:56:38;24.80;;;13.73;;
55491;SDS011;41354;52.990;6.878;2022-08-19T05:59:08;20.30;;;14.40;;
55491;SDS011;41354;52.990;6.878;2022-08-19T06:01:40;28.00;;;17.45;;
55491;SDS011;41354;52.990;6.878;2022-08-19T06:04:08;24.42;;;15.77;;
55491;SDS011;41354;52.990;6.878;2022-08-19T06:06:34;25.85;;;16.17;;
55491;SDS011;41354;52.990;6.878;2022-08-19T06:09:01;22.20;;;13.77;;
55491;SDS011;41354;52.990;6.878;2022-08-19T06:11:35;23.13;;;14.18;;
55491;SDS011;41354;52.990;6.878;2022-08-19T06:14:11;21.55;;;14.45;;
55491;SDS011;41354;52.990;6.878;2022-08-19T06:16:39;21.45;;;12.90;;
55491;SDS011;41354;52.990;6.878;2022-08-19T06:19:06;19.98;;;12.95;;
55491;SDS011;41354;52.990;6.878;2022-08-19T06:21:36;21.33;;;12.18;;
55491;SDS011;41354;52.990;6.878;2022-08-19T06:24:08;19.75;;;11.60;;
55491;SDS011;41354;52.990;6.878;2022-08-19T06:26:37;18.42;;;10.68;;
55491;SDS011;41354;52.990;6.878;2022-08-19T06:29:04;17.15;;;10.65;;
55491;SDS011;41354;52.990;6.878;2022-08-19T06:31:31;20.15;;;13.70;;
55491;SDS011;41354;52.990;6.878;2022-08-19T06:33:59;18.63;;;12.82;;
55491;SDS011;41354;52.990;6.878;2022-08-19T06:36:29;17.05;;;11.88;;
55491;SDS011;41354;52.990;6.878;2022-08-19T06:38:59;18.13;;;11.88;;
55491;SDS011;41354;52.990;6.878;2022-08-19T06:41:27;14.77;;;11.45;;
55491;SDS011;41354;52.990;6.878;2022-08-19T06:43:54;15.07;;;11.43;;
55491;SDS011;41354;52.990;6.878;2022-08-19T06:46:20;15.35;;;11.18;;
55491;SDS011;41354;52.990;6.878;2022-08-19T06:48:46;16.48;;;12.55;;
55491;SDS011;41354;52.990;6.878;2022-08-19T06:51:13;18.77;;;13.32;;
55491;SDS011;41354;52.990;6.878;2022-08-19T06:53:41;17.20;;;12.40;;
55491;SDS011;41354;52.990;6.878;2022-08-19T06:56:11;18.33;;;13.88;;
55491;SDS011;41354;52.990;6.878;2022-08-19T06:58:41;16.55;;;11.70;;
55491;SDS011;41354;52.990;6.878;2022-08-19T07:01:16;15.50;;;10.40;;
55491;SDS011;41354;52.990;6.878;2022-08-19T07:03:42;17.65;;;12.13;;
55491;SDS011;41354;52.990;6.878;2022-08-19T07:06:11;18.10;;;12.02;;
55491;SDS011;41354;52.990;6.878;2022-08-19T07:08:40;14.77;;;11.50;;
55491;SDS011;41354;52.990;6.878;2022-08-19T07:11:07;20.95;;;12.70;;
55491;SDS011;41354;52.990;6.878;2022-08-19T07:13:34;13.88;;;10.45;;
55491;SDS011;41354;52.990;6.878;2022-08-19T07:16:09;11.50;;;9.30;;
55491;SDS011;41354;52.990;6.878;2022-08-19T07:18:36;15.30;;;9.40;;
55491;SDS011;41354;52.990;6.878;2022-08-19T07:21:06;11.13;;;8.55;;
55491;SDS011;41354;52.990;6.878;2022-08-19T07:23:36;12.90;;;10.25;;
55491;SDS011;41354;52.990;6.878;2022-08-19T07:26:21;9.95;;;8.40;;
55491;SDS011;41354;52.990;6.878;2022-08-19T07:28:54;11.52;;;8.57;;
55491;SDS011;41354;52.990;6.878;2022-08-19T07:31:21;10.85;;;8.70;;
55491;SDS011;41354;52.990;6.878;2022-08-19T07:33:48;10.95;;;7.65;;
55491;SDS011;41354;52.990;6.878;2022-08-19T07:36:18;12.25;;;8.20;;
55491;SDS011;41354;52.990;6.878;2022-08-19T07:38:47;11.20;;;8.65;;
55491;SDS011;41354;52.990;6.878;2022-08-19T07:41:15;12.25;;;8.02;;
55491;SDS011;41354;52.990;6.878;2022-08-19T07:43:43;15.48;;;8.70;;
55491;SDS011;41354;52.990;6.878;2022-08-19T07:46:10;13.93;;;8.32;;
55491;SDS011;41354;52.990;6.878;2022-08-19T07:48:38;12.48;;;8.80;;
55491;SDS011;41354;52.990;6.878;2022-08-19T07:51:05;12.05;;;8.82;;
55491;SDS011;41354;52.990;6.878;2022-08-19T07:53:33;13.77;;;8.80;;
55491;SDS011;41354;52.990;6.878;2022-08-19T07:55:59;8.88;;;7.63;;
55491;SDS011;41354;52.990;6.878;2022-08-19T07:58:28;8.05;;;6.63;;
55491;SDS011;41354;52.990;6.878;2022-08-19T08:00:54;9.95;;;7.40;;
55491;SDS011;41354;52.990;6.878;2022-08-19T08:03:21;10.32;;;7.80;;
55491;SDS011;41354;52.990;6.878;2022-08-19T08:06:07;8.48;;;7.55;;
55491;SDS011;41354;52.990;6.878;2022-08-19T08:08:56;7.97;;;5.75;;
55491;SDS011;41354;52.990;6.878;2022-08-19T08:11:37;9.55;;;7.13;;
55491;SDS011;41354;52.990;6.878;2022-08-19T08:14:03;9.00;;;6.47;;
55491;SDS011;41354;52.990;6.878;2022-08-19T08:16:30;8.40;;;7.63;;
55491;SDS011;41354;52.990;6.878;2022-08-19T08:19:04;8.32;;;6.45;;
55491;SDS011;41354;52.990;6.878;2022-08-19T08:21:30;8.38;;;5.72;;
55491;SDS011;41354;52.990;6.878;2022-08-19T08:23:57;10.45;;;6.50;;
55491;SDS011;41354;52.990;6.878;2022-08-19T08:26:23;8.40;;;6.45;;
55491;SDS011;41354;52.990;6.878;2022-08-19T08:28:50;7.63;;;5.82;;
55491;SDS011;41354;52.990;6.878;2022-08-19T08:31:16;6.50;;;5.43;;
55491;SDS011;41354;52.990;6.878;2022-08-19T08:33:43;6.90;;;5.55;;
55491;SDS011;41354;52.990;6.878;2022-08-19T08:36:09;6.68;;;5.97;;
55491;SDS011;41354;52.990;6.878;2022-08-19T08:38:36;6.20;;;5.60;;
55491;SDS011;41354;52.990;6.878;2022-08-19T08:43:47;6.32;;;5.43;;
55491;SDS011;41354;52.990;6.878;2022-08-19T08:47:00;7.80;;;5.63;;
55491;SDS011;41354;52.990;6.878;2022-08-19T08:51:51;5.27;;;4.80;;
55491;SDS011;41354;52.990;6.878;2022-08-19T08:54:22;7.78;;;5.88;;
55491;SDS011;41354;52.990;6.878;2022-08-19T08:56:51;7.75;;;5.60;;
55491;SDS011;41354;52.990;6.878;2022-08-19T08:59:24;4.75;;;4.18;;
55491;SDS011;41354;52.990;6.878;2022-08-19T09:01:56;9.15;;;5.78;;
55491;SDS011;41354;52.990;6.878;2022-08-19T09:04:21;8.60;;;5.60;;
55491;SDS011;41354;52.990;6.878;2022-08-19T09:06:50;5.22;;;3.65;;
55491;SDS011;41354;52.990;6.878;2022-08-19T09:09:43;4.93;;;3.90;;
55491;SDS011;41354;52.990;6.878;2022-08-19T09:12:26;4.82;;;3.55;;
55491;SDS011;41354;52.990;6.878;2022-08-19T09:15:02;2.92;;;2.10;;
55491;SDS011;41354;52.990;6.878;2022-08-19T09:17:30;2.00;;;1.30;;
55491;SDS011;41354;52.990;6.878;2022-08-19T09:22:36;2.13;;;0.80;;
55491;SDS011;41354;52.990;6.878;2022-08-19T09:25:03;2.20;;;1.40;;
55491;SDS011;41354;52.990;6.878;2022-08-19T09:27:31;1.83;;;1.33;;
55491;SDS011;41354;52.990;6.878;2022-08-19T09:29:57;2.17;;;0.75;;
55491;SDS011;41354;52.990;6.878;2022-08-19T09:32:23;1.20;;;1.00;;
55491;SDS011;41354;52.990;6.878;2022-08-19T09:34:50;3.25;;;0.95;;
55491;SDS011;41354;52.990;6.878;2022-08-19T09:37:17;2.45;;;1.25;;
55491;SDS011;41354;52.990;6.878;2022-08-19T09:39:43;2.00;;;1.27;;
55491;SDS011;41354;52.990;6.878;2022-08-19T09:42:09;4.00;;;1.45;;
55491;SDS011;41354;52.990;6.878;2022-08-19T09:44:40;1.58;;;0.95;;
55491;SDS011;41354;52.990;6.878;2022-08-19T09:47:06;4.45;;;1.85;;
55491;SDS011;41354;52.990;6.878;2022-08-19T09:49:33;4.72;;;2.45;;
55491;SDS011;41354;52.990;6.878;2022-08-19T09:51:59;2.42;;;2.17;;
55491;SDS011;41354;52.990;6.878;2022-08-19T09:54:25;2.30;;;1.50;;
55491;SDS011;41354;52.990;6.878;2022-08-19T09:56:51;4.35;;;2.08;;
55491;SDS011;41354;52.990;6.878;2022-08-19T09:59:20;2.40;;;2.13;;
55491;SDS011;41354;52.990;6.878;2022-08-19T10:01:46;3.42;;;2.20;;
55491;SDS011;41354;52.990;6.878;2022-08-19T10:04:12;2.92;;;2.42;;
55491;SDS011;41354;52.990;6.878;2022-08-19T10:06:38;5.53;;;2.22;;
55491;SDS011;41354;52.990;6.878;2022-08-19T10:09:06;4.55;;;2.67;;
55491;SDS011;41354;52.990;6.878;2022-08-19T10:11:34;3.42;;;3.13;;
55491;SDS011;41354;52.990;6.878;2022-08-19T10:14:03;3.78;;;2.17;;
55491;SDS011;41354;52.990;6.878;2022-08-19T10:16:32;3.00;;;1.98;;
55491;SDS011;41354;52.990;6.878;2022-08-19T10:18:58;3.42;;;3.10;;
55491;SDS011;41354;52.990;6.878;2022-08-19T10:21:25;3.05;;;2.42;;
55491;SDS011;41354;52.990;6.878;2022-08-19T10:23:56;3.75;;;3.15;;
55491;SDS011;41354;52.990;6.878;2022-08-19T10:26:28;3.83;;;2.85;;
55491;SDS011;41354;52.990;6.878;2022-08-19T10:29:06;5.07;;;3.30;;
55491;SDS011;41354;52.990;6.878;2022-08-19T10:31:33;3.92;;;2.50;;
55491;SDS011;41354;52.990;6.878;2022-08-19T10:33:59;3.58;;;3.28;;
55491;SDS011;41354;52.990;6.878;2022-08-19T10:36:27;5.35;;;3.22;;
55491;SDS011;41354;52.990;6.878;2022-08-19T10:38:58;5.85;;;2.92;;
55491;SDS011;41354;52.990;6.878;2022-08-19T10:41:31;5.40;;;2.92;;
55491;SDS011;41354;52.990;6.878;2022-08-19T10:43:59;4.90;;;2.60;;
55491;SDS011;41354;52.990;6.878;2022-08-19T10:46:28;2.78;;;2.55;;
55491;SDS011;41354;52.990;6.878;2022-08-19T10:48:57;5.35;;;3.72;;
55491;SDS011;41354;52.990;6.878;2022-08-19T10:51:24;3.47;;;3.17;;
55491;SDS011;41354;52.990;6.878;2022-08-19T10:56:34;3.50;;;3.10;;
55491;SDS011;41354;52.990;6.878;2022-08-19T10:59:23;4.63;;;3.25;;
55491;SDS011;41354;52.990;6.878;2022-08-19T11:01:52;3.77;;;2.90;;
55491;SDS011;41354;52.990;6.878;2022-08-19T11:04:20;4.07;;;3.53;;
55491;SDS011;41354;52.990;6.878;2022-08-19T11:06:47;6.88;;;3.65;;
55491;SDS011;41354;52.990;6.878;2022-08-19T11:09:15;4.72;;;3.40;;
55491;SDS011;41354;52.990;6.878;2022-08-19T11:11:45;3.38;;;3.00;;
55491;SDS011;41354;52.990;6.878;2022-08-19T11:14:13;3.92;;;3.35;;
55491;SDS011;41354;52.990;6.878;2022-08-19T11:16:41;3.63;;;3.33;;
55491;SDS011;41354;52.990;6.878;2022-08-19T11:19:07;4.63;;;3.53;;
55491;SDS011;41354;52.990;6.878;2022-08-19T11:21:35;3.70;;;3.08;;
55491;SDS011;41354;52.990;6.878;2022-08-19T11:24:05;5.82;;;4.10;;
55491;SDS011;41354;52.990;6.878;2022-08-19T11:26:33;6.63;;;5.72;;
55491;SDS011;41354;52.990;6.878;2022-08-19T11:29:00;5.70;;;4.70;;
55491;SDS011;41354;52.990;6.878;2022-08-19T11:31:28;5.82;;;4.75;;
55491;SDS011;41354;52.990;6.878;2022-08-19T11:34:01;4.13;;;3.58;;
55491;SDS011;41354;52.990;6.878;2022-08-19T11:36:29;4.73;;;3.33;;
55491;SDS011;41354;52.990;6.878;2022-08-19T11:38:57;4.15;;;3.85;;
55491;SDS011;41354;52.990;6.878;2022-08-19T11:41:24;4.53;;;3.28;;
55491;SDS011;41354;52.990;6.878;2022-08-19T11:43:50;5.05;;;4.20;;
55491;SDS011;41354;52.990;6.878;2022-08-19T11:46:19;6.10;;;4.28;;
55491;SDS011;41354;52.990;6.878;2022-08-19T11:48:45;5.05;;;4.40;;
55491;SDS011;41354;52.990;6.878;2022-08-19T11:51:14;4.60;;;4.03;;
55491;SDS011;41354;52.990;6.878;2022-08-19T11:53:42;4.80;;;4.38;;
55491;SDS011;41354;52.990;6.878;2022-08-19T11:56:08;5.63;;;4.70;;
55491;SDS011;41354;52.990;6.878;2022-08-19T11:58:34;6.18;;;4.75;;
55491;SDS011;41354;52.990;6.878;2022-08-19T12:01:00;5.32;;;4.25;;
55491;SDS011;41354;52.990;6.878;2022-08-19T12:03:30;6.88;;;4.65;;
55491;SDS011;41354;52.990;6.878;2022-08-19T12:05:56;8.48;;;5.28;;
55491;SDS011;41354;52.990;6.878;2022-08-19T12:08:21;4.65;;;4.25;;
55491;SDS011;41354;52.990;6.878;2022-08-19T12:10:47;5.07;;;4.65;;
55491;SDS011;41354;52.990;6.878;2022-08-19T12:13:13;5.45;;;4.95;;
55491;SDS011;41354;52.990;6.878;2022-08-19T12:15:44;5.75;;;3.75;;
55491;SDS011;41354;52.990;6.878;2022-08-19T12:18:11;4.90;;;4.40;;
55491;SDS011;41354;52.990;6.878;2022-08-19T12:20:40;5.32;;;3.83;;
55491;SDS011;41354;52.990;6.878;2022-08-19T12:23:08;5.40;;;4.95;;
55491;SDS011;41354;52.990;6.878;2022-08-19T12:25:35;7.97;;;5.38;;
55491;SDS011;41354;52.990;6.878;2022-08-19T12:28:01;5.30;;;4.82;;
55491;SDS011;41354;52.990;6.878;2022-08-19T12:30:27;5.85;;;4.55;;
55491;SDS011;41354;52.990;6.878;2022-08-19T12:32:53;4.90;;;4.50;;
55491;SDS011;41354;52.990;6.878;2022-08-19T12:35:19;4.63;;;3.85;;
55491;SDS011;41354;52.990;6.878;2022-08-19T12:37:45;4.90;;;4.15;;
55491;SDS011;41354;52.990;6.878;2022-08-19T12:40:11;5.57;;;4.20;;
55491;SDS011;41354;52.990;6.878;2022-08-19T12:42:38;4.60;;;3.92;;
55491;SDS011;41354;52.990;6.878;2022-08-19T12:45:07;4.55;;;4.15;;
55491;SDS011;41354;52.990;6.878;2022-08-19T12:47:34;4.72;;;3.75;;
55491;SDS011;41354;52.990;6.878;2022-08-19T12:49:59;7.00;;;5.32;;
55491;SDS011;41354;52.990;6.878;2022-08-19T12:52:26;4.38;;;4.00;;
55491;SDS011;41354;52.990;6.878;2022-08-19T12:54:53;3.20;;;3.00;;
55491;SDS011;41354;52.990;6.878;2022-08-19T12:57:20;7.57;;;5.40;;
55491;SDS011;41354;52.990;6.878;2022-08-19T12:59:47;7.28;;;4.70;;
55491;SDS011;41354;52.990;6.878;2022-08-19T13:02:16;5.78;;;5.10;;
55491;SDS011;41354;52.990;6.878;2022-08-19T13:04:42;5.07;;;4.53;;
55491;SDS011;41354;52.990;6.878;2022-08-19T13:07:07;7.30;;;4.88;;
55491;SDS011;41354;52.990;6.878;2022-08-19T13:09:34;7.38;;;5.63;;
55491;SDS011;41354;52.990;6.878;2022-08-19T13:11:59;6.68;;;5.78;;
55491;SDS011;41354;52.990;6.878;2022-08-19T13:14:29;6.32;;;5.35;;
55491;SDS011;41354;52.990;6.878;2022-08-19T13:16:56;6.53;;;5.45;;
55491;SDS011;41354;52.990;6.878;2022-08-19T13:19:22;8.95;;;5.25;;
55491;SDS011;41354;52.990;6.878;2022-08-19T13:21:49;4.72;;;4.18;;
55491;SDS011;41354;52.990;6.878;2022-08-19T13:24:15;5.72;;;4.53;;
55491;SDS011;41354;52.990;6.878;2022-08-19T13:26:41;3.20;;;2.97;;
55491;SDS011;41354;52.990;6.878;2022-08-19T13:29:07;2.58;;;1.73;;
55491;SDS011;41354;52.990;6.878;2022-08-19T13:31:51;2.85;;;1.65;;
55491;SDS011;41354;52.990;6.878;2022-08-19T13:34:36;4.28;;;2.78;;
55491;SDS011;41354;52.990;6.878;2022-08-19T13:37:02;3.38;;;2.65;;
55491;SDS011;41354;52.990;6.878;2022-08-19T13:39:32;3.67;;;2.72;;
55491;SDS011;41354;52.990;6.878;2022-08-19T13:41:58;3.13;;;2.78;;
55491;SDS011;41354;52.990;6.878;2022-08-19T13:44:24;3.05;;;2.63;;
55491;SDS011;41354;52.990;6.878;2022-08-19T13:46:51;4.53;;;2.85;;
55491;SDS011;41354;52.990;6.878;2022-08-19T13:49:18;4.45;;;2.35;;
55491;SDS011;41354;52.990;6.878;2022-08-19T13:51:45;1.65;;;1.55;;
55491;SDS011;41354;52.990;6.878;2022-08-19T13:54:11;3.97;;;2.38;;
55491;SDS011;41354;52.990;6.878;2022-08-19T13:56:44;2.88;;;1.90;;
55491;SDS011;41354;52.990;6.878;2022-08-19T13:59:11;3.25;;;2.42;;
55491;SDS011;41354;52.990;6.878;2022-08-19T14:01:37;3.67;;;2.47;;
55491;SDS011;41354;52.990;6.878;2022-08-19T14:04:03;3.38;;;2.38;;
55491;SDS011;41354;52.990;6.878;2022-08-19T14:06:30;4.25;;;2.00;;
55491;SDS011;41354;52.990;6.878;2022-08-19T14:08:56;3.60;;;1.75;;
55491;SDS011;41354;52.990;6.878;2022-08-19T14:11:22;3.20;;;2.90;;
55491;SDS011;41354;52.990;6.878;2022-08-19T14:13:48;3.28;;;2.60;;
55491;SDS011;41354;52.990;6.878;2022-08-19T14:16:14;2.67;;;2.47;;
55491;SDS011;41354;52.990;6.878;2022-08-19T14:18:40;3.33;;;2.53;;
55491;SDS011;41354;52.990;6.878;2022-08-19T14:21:07;6.63;;;2.03;;
55491;SDS011;41354;52.990;6.878;2022-08-19T14:23:38;4.40;;;3.75;;
55491;SDS011;41354;52.990;6.878;2022-08-19T14:26:05;5.20;;;2.83;;
55491;SDS011;41354;52.990;6.878;2022-08-19T14:28:32;3.47;;;3.17;;
55491;SDS011;41354;52.990;6.878;2022-08-19T14:30:58;10.40;;;7.13;;
55491;SDS011;41354;52.990;6.878;2022-08-19T14:33:23;12.00;;;9.38;;
55491;SDS011;41354;52.990;6.878;2022-08-19T14:35:49;11.45;;;10.02;;
55491;SDS011;41354;52.990;6.878;2022-08-19T14:38:16;12.50;;;11.23;;
55491;SDS011;41354;52.990;6.878;2022-08-19T14:40:42;12.15;;;10.95;;
55491;SDS011;41354;52.990;6.878;2022-08-19T14:43:09;12.25;;;10.05;;
55491;SDS011;41354;52.990;6.878;2022-08-19T14:45:36;13.35;;;10.98;;
55491;SDS011;41354;52.990;6.878;2022-08-19T14:48:04;14.57;;;11.02;;
55491;SDS011;41354;52.990;6.878;2022-08-19T14:50:33;13.02;;;11.55;;
55491;SDS011;41354;52.990;6.878;2022-08-19T14:53:01;13.50;;;11.80;;
55491;SDS011;41354;52.990;6.878;2022-08-19T14:55:30;13.82;;;12.43;;
55491;SDS011;41354;52.990;6.878;2022-08-19T14:57:56;12.18;;;10.88;;
55491;SDS011;41354;52.990;6.878;2022-08-19T15:00:23;12.85;;;11.45;;